sensor_id;sensor_type;location;lat;lon;timestamp;P1;durP1;ratioP1;P2;durP2;ratioP2
56477;SDS011;42382;53.210;5.772;2023-04-26T00:02:10;6.13;;;0.55;;
56477;SDS011;42382;53.210;5.772;2023-04-26T00:04:36;5.20;;;1.08;;
56477;SDS011;42382;53.210;5.772;2023-04-26T00:07:03;5.43;;;0.90;;
56477;SDS011;42382;53.210;5.772;2023-04-26T00:09:28;6.35;;;1.38;;
56477;SDS011;42382;53.210;5.772;2023-04-26T00:11:54;6.28;;;0.70;;
56477;SDS011;42382;53.210;5.772;2023-04-26T00:14:20;8.30;;;1.02;;
56477;SDS011;42382;53.210;5.772;2023-04-26T00:16:45;7.18;;;0.90;;
56477;SDS011;42382;53.210;5.772;2023-04-26T00:19:11;8.82;;;0.68;;
56477;SDS011;42382;53.210;5.772;2023-04-26T00:21:37;7.60;;;0.95;;
56477;SDS011;42382;53.210;5.772;2023-04-26T00:24:03;5.13;;;0.65;;
56477;SDS011;42382;53.210;5.772;2023-04-26T00:26:29;10.82;;;0.60;;
56477;SDS011;42382;53.210;5.772;2023-04-26T00:28:56;10.65;;;1.05;;
56477;SDS011;42382;53.210;5.772;2023-04-26T00:31:21;7.10;;;0.68;;
56477;SDS011;42382;53.210;5.772;2023-04-26T00:33:47;5.97;;;1.00;;
56477;SDS011;42382;53.210;5.772;2023-04-26T00:36:13;5.03;;;0.70;;
56477;SDS011;42382;53.210;5.772;2023-04-26T00:38:43;6.03;;;0.60;;
56477;SDS011;42382;53.210;5.772;2023-04-26T00:41:11;5.47;;;1.10;;
56477;SDS011;42382;53.210;5.772;2023-04-26T00:43:37;7.47;;;0.77;;
56477;SDS011;42382;53.210;5.772;2023-04-26T00:46:04;6.82;;;0.70;;
56477;SDS011;42382;53.210;5.772;2023-04-26T00:48:30;3.58;;;0.68;;
56477;SDS011;42382;53.210;5.772;2023-04-26T00:50:56;6.55;;;0.73;;
56477;SDS011;42382;53.210;5.772;2023-04-26T00:53:22;6.88;;;1.25;;
56477;SDS011;42382;53.210;5.772;2023-04-26T00:55:47;2.95;;;0.40;;
56477;SDS011;42382;53.210;5.772;2023-04-26T00:58:15;4.95;;;0.68;;
56477;SDS011;42382;53.210;5.772;2023-04-26T01:00:42;3.60;;;0.63;;
56477;SDS011;42382;53.210;5.772;2023-04-26T01:03:08;7.28;;;0.80;;
56477;SDS011;42382;53.210;5.772;2023-04-26T01:05:35;4.53;;;0.55;;
56477;SDS011;42382;53.210;5.772;2023-04-26T01:08:01;5.90;;;0.70;;
56477;SDS011;42382;53.210;5.772;2023-04-26T01:10:28;9.25;;;1.02;;
56477;SDS011;42382;53.210;5.772;2023-04-26T01:12:56;6.82;;;0.60;;
56477;SDS011;42382;53.210;5.772;2023-04-26T01:15:22;4.55;;;0.60;;
56477;SDS011;42382;53.210;5.772;2023-04-26T01:17:48;8.43;;;0.80;;
56477;SDS011;42382;53.210;5.772;2023-04-26T01:20:14;5.25;;;0.65;;
56477;SDS011;42382;53.210;5.772;2023-04-26T01:22:40;4.85;;;0.60;;
56477;SDS011;42382;53.210;5.772;2023-04-26T01:25:06;9.18;;;1.45;;
56477;SDS011;42382;53.210;5.772;2023-04-26T01:27:36;9.52;;;0.95;;
56477;SDS011;42382;53.210;5.772;2023-04-26T01:30:01;5.20;;;0.60;;
56477;SDS011;42382;53.210;5.772;2023-04-26T01:32:27;5.55;;;0.70;;
56477;SDS011;42382;53.210;5.772;2023-04-26T01:34:53;6.50;;;0.80;;
56477;SDS011;42382;53.210;5.772;2023-04-26T01:37:18;8.38;;;1.52;;
56477;SDS011;42382;53.210;5.772;2023-04-26T01:39:44;5.93;;;1.08;;
56477;SDS011;42382;53.210;5.772;2023-04-26T01:42:10;5.28;;;0.52;;
56477;SDS011;42382;53.210;5.772;2023-04-26T01:44:36;9.13;;;1.17;;
56477;SDS011;42382;53.210;5.772;2023-04-26T01:47:01;8.48;;;1.00;;
56477;SDS011;42382;53.210;5.772;2023-04-26T01:49:28;7.68;;;0.65;;
56477;SDS011;42382;53.210;5.772;2023-04-26T01:51:54;5.15;;;0.55;;
56477;SDS011;42382;53.210;5.772;2023-04-26T01:54:19;6.97;;;1.05;;
56477;SDS011;42382;53.210;5.772;2023-04-26T01:56:45;5.00;;;0.60;;
56477;SDS011;42382;53.210;5.772;2023-04-26T01:59:11;7.47;;;0.50;;
56477;SDS011;42382;53.210;5.772;2023-04-26T02:01:36;4.55;;;0.55;;
56477;SDS011;42382;53.210;5.772;2023-04-26T02:04:02;6.07;;;0.70;;
56477;SDS011;42382;53.210;5.772;2023-04-26T02:06:29;3.92;;;0.70;;
56477;SDS011;42382;53.210;5.772;2023-04-26T02:08:56;7.18;;;0.70;;
56477;SDS011;42382;53.210;5.772;2023-04-26T02:11:21;6.03;;;1.13;;
56477;SDS011;42382;53.210;5.772;2023-04-26T02:13:48;3.38;;;0.40;;
56477;SDS011;42382;53.210;5.772;2023-04-26T02:16:14;3.05;;;0.57;;
56477;SDS011;42382;53.210;5.772;2023-04-26T02:18:40;8.25;;;0.70;;
56477;SDS011;42382;53.210;5.772;2023-04-26T02:21:07;13.45;;;0.98;;
56477;SDS011;42382;53.210;5.772;2023-04-26T02:23:33;5.93;;;1.15;;
56477;SDS011;42382;53.210;5.772;2023-04-26T02:25:58;5.60;;;0.57;;
56477;SDS011;42382;53.210;5.772;2023-04-26T02:28:24;5.03;;;0.70;;
56477;SDS011;42382;53.210;5.772;2023-04-26T02:30:50;8.23;;;0.70;;
56477;SDS011;42382;53.210;5.772;2023-04-26T02:33:16;4.22;;;0.47;;
56477;SDS011;42382;53.210;5.772;2023-04-26T02:35:42;9.30;;;1.05;;
56477;SDS011;42382;53.210;5.772;2023-04-26T02:38:07;4.70;;;0.50;;
56477;SDS011;42382;53.210;5.772;2023-04-26T02:40:33;5.47;;;0.52;;
56477;SDS011;42382;53.210;5.772;2023-04-26T02:42:58;3.75;;;0.50;;
56477;SDS011;42382;53.210;5.772;2023-04-26T02:45:24;3.45;;;0.30;;
56477;SDS011;42382;53.210;5.772;2023-04-26T02:47:50;4.40;;;0.50;;
56477;SDS011;42382;53.210;5.772;2023-04-26T02:50:15;4.85;;;0.68;;
56477;SDS011;42382;53.210;5.772;2023-04-26T02:52:41;6.85;;;0.75;;
56477;SDS011;42382;53.210;5.772;2023-04-26T02:55:07;6.82;;;0.80;;
56477;SDS011;42382;53.210;5.772;2023-04-26T02:57:33;6.30;;;1.13;;
56477;SDS011;42382;53.210;5.772;2023-04-26T02:59:58;4.93;;;0.60;;
56477;SDS011;42382;53.210;5.772;2023-04-26T03:02:25;5.05;;;0.70;;
56477;SDS011;42382;53.210;5.772;2023-04-26T03:04:50;2.97;;;0.70;;
56477;SDS011;42382;53.210;5.772;2023-04-26T03:07:16;4.07;;;0.50;;
56477;SDS011;42382;53.210;5.772;2023-04-26T03:09:42;8.70;;;1.00;;
56477;SDS011;42382;53.210;5.772;2023-04-26T03:12:08;2.67;;;0.60;;
56477;SDS011;42382;53.210;5.772;2023-04-26T03:14:34;5.80;;;0.85;;
56477;SDS011;42382;53.210;5.772;2023-04-26T03:16:59;5.55;;;0.65;;
56477;SDS011;42382;53.210;5.772;2023-04-26T03:19:25;5.38;;;0.90;;
56477;SDS011;42382;53.210;5.772;2023-04-26T03:21:52;4.75;;;0.70;;
56477;SDS011;42382;53.210;5.772;2023-04-26T03:24:18;10.43;;;0.77;;
56477;SDS011;42382;53.210;5.772;2023-04-26T03:26:44;4.60;;;0.68;;
56477;SDS011;42382;53.210;5.772;2023-04-26T03:29:10;4.40;;;0.88;;
56477;SDS011;42382;53.210;5.772;2023-04-26T03:31:36;6.10;;;0.70;;
56477;SDS011;42382;53.210;5.772;2023-04-26T03:34:02;5.38;;;0.55;;
56477;SDS011;42382;53.210;5.772;2023-04-26T03:36:28;8.35;;;0.70;;
56477;SDS011;42382;53.210;5.772;2023-04-26T03:38:54;4.10;;;0.40;;
56477;SDS011;42382;53.210;5.772;2023-04-26T03:41:20;5.15;;;0.77;;
56477;SDS011;42382;53.210;5.772;2023-04-26T03:43:46;6.25;;;0.60;;
56477;SDS011;42382;53.210;5.772;2023-04-26T03:46:12;5.15;;;0.57;;
56477;SDS011;42382;53.210;5.772;2023-04-26T03:48:38;6.80;;;0.82;;
56477;SDS011;42382;53.210;5.772;2023-04-26T03:51:04;3.97;;;1.05;;
56477;SDS011;42382;53.210;5.772;2023-04-26T03:53:30;6.38;;;1.50;;
56477;SDS011;42382;53.210;5.772;2023-04-26T03:55:56;4.72;;;0.60;;
56477;SDS011;42382;53.210;5.772;2023-04-26T03:58:22;3.97;;;0.60;;
56477;SDS011;42382;53.210;5.772;2023-04-26T04:00:49;5.50;;;0.80;;
56477;SDS011;42382;53.210;5.772;2023-04-26T04:03:15;6.13;;;0.93;;
56477;SDS011;42382;53.210;5.772;2023-04-26T04:05:41;4.82;;;0.57;;
56477;SDS011;42382;53.210;5.772;2023-04-26T04:08:06;10.23;;;1.95;;
56477;SDS011;42382;53.210;5.772;2023-04-26T04:10:32;4.60;;;0.73;;
56477;SDS011;42382;53.210;5.772;2023-04-26T04:12:57;4.35;;;0.65;;
56477;SDS011;42382;53.210;5.772;2023-04-26T04:15:23;9.05;;;1.02;;
56477;SDS011;42382;53.210;5.772;2023-04-26T04:17:49;5.15;;;0.75;;
56477;SDS011;42382;53.210;5.772;2023-04-26T04:20:15;4.68;;;0.57;;
56477;SDS011;42382;53.210;5.772;2023-04-26T04:22:40;4.07;;;0.60;;
56477;SDS011;42382;53.210;5.772;2023-04-26T04:25:09;4.32;;;0.80;;
56477;SDS011;42382;53.210;5.772;2023-04-26T04:27:35;4.05;;;0.80;;
56477;SDS011;42382;53.210;5.772;2023-04-26T04:30:02;5.75;;;0.70;;
56477;SDS011;42382;53.210;5.772;2023-04-26T04:32:29;6.38;;;0.77;;
56477;SDS011;42382;53.210;5.772;2023-04-26T04:34:57;4.20;;;0.60;;
56477;SDS011;42382;53.210;5.772;2023-04-26T04:37:23;7.15;;;0.60;;
56477;SDS011;42382;53.210;5.772;2023-04-26T04:39:50;5.97;;;0.63;;
56477;SDS011;42382;53.210;5.772;2023-04-26T04:42:17;4.97;;;0.60;;
56477;SDS011;42382;53.210;5.772;2023-04-26T04:44:43;2.28;;;0.50;;
56477;SDS011;42382;53.210;5.772;2023-04-26T04:47:09;5.10;;;0.85;;
56477;SDS011;42382;53.210;5.772;2023-04-26T04:49:36;1.27;;;0.77;;
56477;SDS011;42382;53.210;5.772;2023-04-26T04:52:01;3.50;;;1.20;;
56477;SDS011;42382;53.210;5.772;2023-04-26T04:54:27;9.93;;;1.33;;
56477;SDS011;42382;53.210;5.772;2023-04-26T04:56:53;2.95;;;0.80;;
56477;SDS011;42382;53.210;5.772;2023-04-26T04:59:19;6.90;;;1.23;;
56477;SDS011;42382;53.210;5.772;2023-04-26T05:01:44;5.20;;;0.90;;
56477;SDS011;42382;53.210;5.772;2023-04-26T05:04:10;4.45;;;1.05;;
56477;SDS011;42382;53.210;5.772;2023-04-26T05:06:36;3.53;;;0.70;;
56477;SDS011;42382;53.210;5.772;2023-04-26T05:09:01;5.20;;;0.90;;
56477;SDS011;42382;53.210;5.772;2023-04-26T05:11:29;2.95;;;0.90;;
56477;SDS011;42382;53.210;5.772;2023-04-26T05:13:55;6.68;;;1.45;;
56477;SDS011;42382;53.210;5.772;2023-04-26T05:16:21;4.25;;;0.90;;
56477;SDS011;42382;53.210;5.772;2023-04-26T05:18:46;7.85;;;0.88;;
56477;SDS011;42382;53.210;5.772;2023-04-26T05:21:12;5.53;;;1.40;;
56477;SDS011;42382;53.210;5.772;2023-04-26T05:23:37;7.70;;;1.58;;
56477;SDS011;42382;53.210;5.772;2023-04-26T05:26:03;3.00;;;1.05;;
56477;SDS011;42382;53.210;5.772;2023-04-26T05:28:30;5.30;;;1.30;;
56477;SDS011;42382;53.210;5.772;2023-04-26T05:30:59;6.32;;;1.35;;
56477;SDS011;42382;53.210;5.772;2023-04-26T05:33:26;4.32;;;1.00;;
56477;SDS011;42382;53.210;5.772;2023-04-26T05:35:54;4.63;;;1.35;;
56477;SDS011;42382;53.210;5.772;2023-04-26T05:38:22;6.70;;;1.25;;
56477;SDS011;42382;53.210;5.772;2023-04-26T05:40:48;5.18;;;1.10;;
56477;SDS011;42382;53.210;5.772;2023-04-26T05:43:13;6.65;;;1.65;;
56477;SDS011;42382;53.210;5.772;2023-04-26T05:45:39;6.20;;;1.13;;
56477;SDS011;42382;53.210;5.772;2023-04-26T05:48:13;5.07;;;1.02;;
56477;SDS011;42382;53.210;5.772;2023-04-26T05:50:39;8.45;;;1.65;;
56477;SDS011;42382;53.210;5.772;2023-04-26T05:53:05;6.03;;;1.25;;
56477;SDS011;42382;53.210;5.772;2023-04-26T05:55:31;6.88;;;1.40;;
56477;SDS011;42382;53.210;5.772;2023-04-26T05:57:56;3.38;;;0.90;;
56477;SDS011;42382;53.210;5.772;2023-04-26T06:00:22;3.75;;;1.00;;
56477;SDS011;42382;53.210;5.772;2023-04-26T06:02:48;6.32;;;1.95;;
56477;SDS011;42382;53.210;5.772;2023-04-26T06:05:14;15.57;;;1.10;;
56477;SDS011;42382;53.210;5.772;2023-04-26T06:07:39;5.32;;;0.85;;
56477;SDS011;42382;53.210;5.772;2023-04-26T06:10:05;8.90;;;1.40;;
56477;SDS011;42382;53.210;5.772;2023-04-26T06:12:31;6.35;;;1.00;;
56477;SDS011;42382;53.210;5.772;2023-04-26T06:14:57;6.65;;;1.02;;
56477;SDS011;42382;53.210;5.772;2023-04-26T06:17:22;5.55;;;0.77;;
56477;SDS011;42382;53.210;5.772;2023-04-26T06:19:49;4.13;;;0.75;;
56477;SDS011;42382;53.210;5.772;2023-04-26T06:22:14;4.78;;;1.10;;
56477;SDS011;42382;53.210;5.772;2023-04-26T06:24:40;4.43;;;0.80;;
56477;SDS011;42382;53.210;5.772;2023-04-26T06:27:06;5.97;;;1.38;;
56477;SDS011;42382;53.210;5.772;2023-04-26T06:29:32;6.40;;;1.50;;
56477;SDS011;42382;53.210;5.772;2023-04-26T06:31:58;6.75;;;1.20;;
56477;SDS011;42382;53.210;5.772;2023-04-26T06:34:23;7.75;;;1.42;;
56477;SDS011;42382;53.210;5.772;2023-04-26T06:36:49;4.75;;;0.88;;
56477;SDS011;42382;53.210;5.772;2023-04-26T06:39:14;6.07;;;0.85;;
56477;SDS011;42382;53.210;5.772;2023-04-26T06:41:41;8.77;;;1.30;;
56477;SDS011;42382;53.210;5.772;2023-04-26T06:44:07;5.45;;;0.50;;
56477;SDS011;42382;53.210;5.772;2023-04-26T06:46:33;2.88;;;1.00;;
56477;SDS011;42382;53.210;5.772;2023-04-26T06:48:59;6.85;;;0.93;;
56477;SDS011;42382;53.210;5.772;2023-04-26T06:51:25;6.60;;;0.50;;
56477;SDS011;42382;53.210;5.772;2023-04-26T06:53:51;9.20;;;1.40;;
56477;SDS011;42382;53.210;5.772;2023-04-26T06:56:16;2.70;;;0.63;;
56477;SDS011;42382;53.210;5.772;2023-04-26T06:58:57;8.18;;;0.80;;
56477;SDS011;42382;53.210;5.772;2023-04-26T07:01:24;4.75;;;0.70;;
56477;SDS011;42382;53.210;5.772;2023-04-26T07:03:50;6.85;;;0.85;;
56477;SDS011;42382;53.210;5.772;2023-04-26T07:06:16;5.38;;;0.75;;
56477;SDS011;42382;53.210;5.772;2023-04-26T07:08:41;9.65;;;1.55;;
56477;SDS011;42382;53.210;5.772;2023-04-26T07:11:11;5.57;;;0.50;;
56477;SDS011;42382;53.210;5.772;2023-04-26T07:13:37;10.43;;;0.95;;
56477;SDS011;42382;53.210;5.772;2023-04-26T07:16:02;5.90;;;0.70;;
56477;SDS011;42382;53.210;5.772;2023-04-26T07:18:28;9.52;;;0.80;;
56477;SDS011;42382;53.210;5.772;2023-04-26T07:20:54;7.07;;;0.60;;
56477;SDS011;42382;53.210;5.772;2023-04-26T07:23:20;7.55;;;1.20;;
56477;SDS011;42382;53.210;5.772;2023-04-26T07:25:48;4.47;;;0.40;;
56477;SDS011;42382;53.210;5.772;2023-04-26T07:28:14;7.15;;;0.68;;
56477;SDS011;42382;53.210;5.772;2023-04-26T07:30:40;4.72;;;0.55;;
56477;SDS011;42382;53.210;5.772;2023-04-26T07:33:06;4.75;;;0.75;;
56477;SDS011;42382;53.210;5.772;2023-04-26T07:35:31;5.25;;;0.73;;
56477;SDS011;42382;53.210;5.772;2023-04-26T07:37:59;5.68;;;0.68;;
56477;SDS011;42382;53.210;5.772;2023-04-26T07:40:25;5.63;;;0.65;;
56477;SDS011;42382;53.210;5.772;2023-04-26T07:42:53;4.88;;;0.52;;
56477;SDS011;42382;53.210;5.772;2023-04-26T07:45:19;4.93;;;0.68;;
56477;SDS011;42382;53.210;5.772;2023-04-26T07:47:45;4.95;;;0.70;;
56477;SDS011;42382;53.210;5.772;2023-04-26T07:50:10;6.75;;;0.77;;
56477;SDS011;42382;53.210;5.772;2023-04-26T07:52:36;2.53;;;0.50;;
56477;SDS011;42382;53.210;5.772;2023-04-26T07:55:02;5.47;;;0.70;;
56477;SDS011;42382;53.210;5.772;2023-04-26T07:57:28;3.08;;;0.47;;
56477;SDS011;42382;53.210;5.772;2023-04-26T07:59:53;4.60;;;0.93;;
56477;SDS011;42382;53.210;5.772;2023-04-26T08:02:19;4.13;;;0.80;;
56477;SDS011;42382;53.210;5.772;2023-04-26T08:04:48;6.07;;;1.17;;
56477;SDS011;42382;53.210;5.772;2023-04-26T08:07:15;4.50;;;0.70;;
56477;SDS011;42382;53.210;5.772;2023-04-26T08:09:41;7.45;;;1.00;;
56477;SDS011;42382;53.210;5.772;2023-04-26T08:12:07;5.90;;;0.98;;
56477;SDS011;42382;53.210;5.772;2023-04-26T08:14:33;8.32;;;1.05;;
56477;SDS011;42382;53.210;5.772;2023-04-26T08:17:02;4.72;;;0.70;;
56477;SDS011;42382;53.210;5.772;2023-04-26T08:19:28;3.58;;;1.05;;
56477;SDS011;42382;53.210;5.772;2023-04-26T08:21:55;6.85;;;0.93;;
56477;SDS011;42382;53.210;5.772;2023-04-26T08:24:21;6.63;;;0.85;;
56477;SDS011;42382;53.210;5.772;2023-04-26T08:26:50;4.43;;;0.93;;
56477;SDS011;42382;53.210;5.772;2023-04-26T08:29:15;8.38;;;1.70;;
56477;SDS011;42382;53.210;5.772;2023-04-26T08:31:42;6.65;;;0.82;;
56477;SDS011;42382;53.210;5.772;2023-04-26T08:34:08;8.40;;;1.65;;
56477;SDS011;42382;53.210;5.772;2023-04-26T08:36:38;7.53;;;1.42;;
56477;SDS011;42382;53.210;5.772;2023-04-26T08:39:05;3.45;;;1.13;;
56477;SDS011;42382;53.210;5.772;2023-04-26T08:41:35;7.38;;;1.13;;
56477;SDS011;42382;53.210;5.772;2023-04-26T08:44:04;9.93;;;1.38;;
56477;SDS011;42382;53.210;5.772;2023-04-26T08:46:32;6.32;;;1.10;;
56477;SDS011;42382;53.210;5.772;2023-04-26T08:49:09;8.43;;;1.02;;
56477;SDS011;42382;53.210;5.772;2023-04-26T08:51:46;7.57;;;1.05;;
56477;SDS011;42382;53.210;5.772;2023-04-26T08:54:11;7.60;;;1.08;;
56477;SDS011;42382;53.210;5.772;2023-04-26T08:56:39;6.97;;;1.00;;
56477;SDS011;42382;53.210;5.772;2023-04-26T08:59:08;6.85;;;0.80;;
56477;SDS011;42382;53.210;5.772;2023-04-26T09:01:34;5.80;;;0.90;;
56477;SDS011;42382;53.210;5.772;2023-04-26T09:04:03;5.43;;;1.23;;
56477;SDS011;42382;53.210;5.772;2023-04-26T09:31:38;9.60;;;1.63;;
56477;SDS011;42382;53.210;5.772;2023-04-26T09:34:06;2.78;;;0.70;;
56477;SDS011;42382;53.210;5.772;2023-04-26T09:37:07;5.15;;;0.70;;
56477;SDS011;42382;53.210;5.772;2023-04-26T09:39:30;7.60;;;0.68;;
56477;SDS011;42382;53.210;5.772;2023-04-26T09:41:57;6.35;;;0.73;;
56477;SDS011;42382;53.210;5.772;2023-04-26T09:44:23;7.70;;;0.75;;
56477;SDS011;42382;53.210;5.772;2023-04-26T09:49:48;4.50;;;0.70;;
56477;SDS011;42382;53.210;5.772;2023-04-26T09:52:18;6.00;;;0.70;;
56477;SDS011;42382;53.210;5.772;2023-04-26T09:57:16;6.15;;;0.95;;
56477;SDS011;42382;53.210;5.772;2023-04-26T09:59:45;8.20;;;0.90;;
56477;SDS011;42382;53.210;5.772;2023-04-26T10:02:21;8.38;;;0.95;;
56477;SDS011;42382;53.210;5.772;2023-04-26T10:04:50;5.63;;;0.98;;
56477;SDS011;42382;53.210;5.772;2023-04-26T10:07:17;6.57;;;0.82;;
56477;SDS011;42382;53.210;5.772;2023-04-26T10:09:45;6.85;;;0.80;;
56477;SDS011;42382;53.210;5.772;2023-04-26T10:12:13;9.50;;;1.10;;
56477;SDS011;42382;53.210;5.772;2023-04-26T10:14:39;6.63;;;0.80;;
56477;SDS011;42382;53.210;5.772;2023-04-26T10:17:06;3.72;;;0.45;;
56477;SDS011;42382;53.210;5.772;2023-04-26T10:19:35;6.10;;;0.93;;
56477;SDS011;42382;53.210;5.772;2023-04-26T10:22:08;4.00;;;0.52;;
56477;SDS011;42382;53.210;5.772;2023-04-26T10:24:39;6.05;;;0.63;;
56477;SDS011;42382;53.210;5.772;2023-04-26T10:27:05;3.13;;;0.60;;
56477;SDS011;42382;53.210;5.772;2023-04-26T10:32:18;3.95;;;0.40;;
56477;SDS011;42382;53.210;5.772;2023-04-26T10:34:44;6.80;;;1.00;;
56477;SDS011;42382;53.210;5.772;2023-04-26T11:43:00;5.43;;;0.40;;
56477;SDS011;42382;53.210;5.772;2023-04-26T11:45:31;3.38;;;0.40;;
56477;SDS011;42382;53.210;5.772;2023-04-26T11:47:59;2.63;;;0.50;;
56477;SDS011;42382;53.210;5.772;2023-04-26T11:50:26;4.07;;;0.50;;
56477;SDS011;42382;53.210;5.772;2023-04-26T11:52:54;2.25;;;0.32;;
56477;SDS011;42382;53.210;5.772;2023-04-26T11:55:23;8.07;;;0.52;;
56477;SDS011;42382;53.210;5.772;2023-04-26T11:57:57;2.88;;;0.88;;
56477;SDS011;42382;53.210;5.772;2023-04-26T12:00:32;2.05;;;0.30;;
56477;SDS011;42382;53.210;5.772;2023-04-26T12:17:59;2.30;;;0.40;;
56477;SDS011;42382;53.210;5.772;2023-04-26T12:45:13;3.50;;;0.65;;
56477;SDS011;42382;53.210;5.772;2023-04-26T12:47:38;3.90;;;0.68;;
56477;SDS011;42382;53.210;5.772;2023-04-26T12:50:04;4.28;;;0.88;;
56477;SDS011;42382;53.210;5.772;2023-04-26T12:52:30;5.22;;;1.05;;
56477;SDS011;42382;53.210;5.772;2023-04-26T12:54:56;3.78;;;0.55;;
56477;SDS011;42382;53.210;5.772;2023-04-26T12:57:22;5.38;;;0.80;;
56477;SDS011;42382;53.210;5.772;2023-04-26T13:16:49;3.38;;;0.50;;
56477;SDS011;42382;53.210;5.772;2023-04-26T13:19:15;2.72;;;0.40;;
56477;SDS011;42382;53.210;5.772;2023-04-26T13:21:41;2.58;;;0.40;;
56477;SDS011;42382;53.210;5.772;2023-04-26T13:24:06;6.63;;;2.38;;
56477;SDS011;42382;53.210;5.772;2023-04-26T13:26:32;3.28;;;0.60;;
56477;SDS011;42382;53.210;5.772;2023-04-26T13:28:58;3.00;;;0.50;;
56477;SDS011;42382;53.210;5.772;2023-04-26T13:31:24;4.60;;;0.82;;
56477;SDS011;42382;53.210;5.772;2023-04-26T14:37:03;5.72;;;0.70;;
56477;SDS011;42382;53.210;5.772;2023-04-26T14:39:29;2.60;;;0.43;;
56477;SDS011;42382;53.210;5.772;2023-04-26T14:41:54;4.50;;;0.77;;
56477;SDS011;42382;53.210;5.772;2023-04-26T14:44:24;4.15;;;0.35;;
56477;SDS011;42382;53.210;5.772;2023-04-26T14:46:50;4.17;;;0.37;;
56477;SDS011;42382;53.210;5.772;2023-04-26T14:49:16;4.75;;;0.30;;
56477;SDS011;42382;53.210;5.772;2023-04-26T14:51:42;4.28;;;0.70;;
56477;SDS011;42382;53.210;5.772;2023-04-26T14:54:07;1.40;;;0.30;;
56477;SDS011;42382;53.210;5.772;2023-04-26T14:56:33;2.05;;;0.55;;
56477;SDS011;42382;53.210;5.772;2023-04-26T14:58:59;6.35;;;0.68;;
56477;SDS011;42382;53.210;5.772;2023-04-26T15:01:26;3.40;;;0.50;;
56477;SDS011;42382;53.210;5.772;2023-04-26T15:08:43;3.75;;;0.35;;
56477;SDS011;42382;53.210;5.772;2023-04-26T19:12:25;4.50;;;1.10;;
56477;SDS011;42382;53.210;5.772;2023-04-26T19:22:08;3.35;;;0.82;;
56477;SDS011;42382;53.210;5.772;2023-04-26T19:24:33;4.70;;;0.70;;
56477;SDS011;42382;53.210;5.772;2023-04-26T19:26:59;6.22;;;0.82;;
56477;SDS011;42382;53.210;5.772;2023-04-26T19:29:25;6.03;;;1.23;;
56477;SDS011;42382;53.210;5.772;2023-04-26T19:31:51;2.95;;;1.15;;
56477;SDS011;42382;53.210;5.772;2023-04-26T19:34:16;4.05;;;1.30;;
56477;SDS011;42382;53.210;5.772;2023-04-26T19:36:42;4.60;;;1.27;;
56477;SDS011;42382;53.210;5.772;2023-04-26T19:39:08;3.92;;;1.35;;
56477;SDS011;42382;53.210;5.772;2023-04-26T19:41:33;3.13;;;0.80;;
56477;SDS011;42382;53.210;5.772;2023-04-26T19:43:59;2.33;;;0.80;;
56477;SDS011;42382;53.210;5.772;2023-04-26T19:46:25;1.50;;;0.40;;
56477;SDS011;42382;53.210;5.772;2023-04-26T19:48:50;4.78;;;1.17;;
56477;SDS011;42382;53.210;5.772;2023-04-26T19:51:16;7.80;;;1.23;;
56477;SDS011;42382;53.210;5.772;2023-04-26T19:53:42;4.13;;;1.42;;
56477;SDS011;42382;53.210;5.772;2023-04-26T19:56:08;8.73;;;1.52;;
56477;SDS011;42382;53.210;5.772;2023-04-26T19:58:36;4.47;;;1.55;;
56477;SDS011;42382;53.210;5.772;2023-04-26T20:01:03;7.20;;;1.88;;
56477;SDS011;42382;53.210;5.772;2023-04-26T20:03:29;3.97;;;1.42;;
56477;SDS011;42382;53.210;5.772;2023-04-26T22:00:14;8.10;;;2.28;;
56477;SDS011;42382;53.210;5.772;2023-04-26T22:02:41;5.53;;;1.83;;
56477;SDS011;42382;53.210;5.772;2023-04-26T22:05:07;6.70;;;1.95;;
56477;SDS011;42382;53.210;5.772;2023-04-26T22:07:33;6.15;;;2.25;;
56477;SDS011;42382;53.210;5.772;2023-04-26T22:09:59;6.10;;;2.45;;
56477;SDS011;42382;53.210;5.772;2023-04-26T22:12:25;5.38;;;2.38;;
56477;SDS011;42382;53.210;5.772;2023-04-26T22:14:51;11.68;;;3.75;;
56477;SDS011;42382;53.210;5.772;2023-04-26T22:17:18;12.05;;;4.53;;
56477;SDS011;42382;53.210;5.772;2023-04-26T22:19:44;7.35;;;3.08;;
56477;SDS011;42382;53.210;5.772;2023-04-26T22:22:09;5.32;;;2.42;;
56477;SDS011;42382;53.210;5.772;2023-04-26T22:24:35;5.72;;;2.45;;
56477;SDS011;42382;53.210;5.772;2023-04-26T22:27:01;5.18;;;2.05;;
56477;SDS011;42382;53.210;5.772;2023-04-26T22:29:27;4.22;;;2.22;;
56477;SDS011;42382;53.210;5.772;2023-04-26T22:31:53;3.80;;;2.15;;
56477;SDS011;42382;53.210;5.772;2023-04-26T22:34:19;6.53;;;2.20;;
56477;SDS011;42382;53.210;5.772;2023-04-26T22:36:45;4.18;;;2.35;;
56477;SDS011;42382;53.210;5.772;2023-04-26T22:39:10;5.60;;;2.55;;
56477;SDS011;42382;53.210;5.772;2023-04-26T22:41:36;4.22;;;2.30;;
56477;SDS011;42382;53.210;5.772;2023-04-26T22:44:02;6.03;;;3.03;;
56477;SDS011;42382;53.210;5.772;2023-04-26T22:46:27;8.35;;;3.50;;
56477;SDS011;42382;53.210;5.772;2023-04-26T22:48:53;5.90;;;3.13;;
56477;SDS011;42382;53.210;5.772;2023-04-26T22:51:18;5.50;;;3.10;;
56477;SDS011;42382;53.210;5.772;2023-04-26T23:01:01;5.95;;;3.20;;
56477;SDS011;42382;53.210;5.772;2023-04-26T23:03:26;8.57;;;3.78;;
56477;SDS011;42382;53.210;5.772;2023-04-26T23:05:52;7.22;;;3.65;;
56477;SDS011;42382;53.210;5.772;2023-04-26T23:08:18;8.50;;;2.92;;
56477;SDS011;42382;53.210;5.772;2023-04-26T23:10:43;6.15;;;3.05;;
56477;SDS011;42382;53.210;5.772;2023-04-26T23:13:09;7.18;;;3.60;;
56477;SDS011;42382;53.210;5.772;2023-04-26T23:15:35;5.47;;;2.63;;
56477;SDS011;42382;53.210;5.772;2023-04-26T23:18:01;5.13;;;2.55;;
56477;SDS011;42382;53.210;5.772;2023-04-26T23:20:27;6.15;;;2.80;;
56477;SDS011;42382;53.210;5.772;2023-04-26T23:22:53;4.95;;;2.88;;
56477;SDS011;42382;53.210;5.772;2023-04-26T23:25:18;4.97;;;2.55;;
56477;SDS011;42382;53.210;5.772;2023-04-26T23:27:44;7.05;;;3.40;;
56477;SDS011;42382;53.210;5.772;2023-04-26T23:30:11;9.50;;;3.28;;
56477;SDS011;42382;53.210;5.772;2023-04-26T23:32:40;5.60;;;3.25;;
56477;SDS011;42382;53.210;5.772;2023-04-26T23:35:05;6.68;;;3.42;;
56477;SDS011;42382;53.210;5.772;2023-04-26T23:37:31;7.00;;;3.25;;
56477;SDS011;42382;53.210;5.772;2023-04-26T23:39:57;7.07;;;3.25;;
56477;SDS011;42382;53.210;5.772;2023-04-26T23:42:23;5.70;;;2.65;;
56477;SDS011;42382;53.210;5.772;2023-04-26T23:44:49;6.82;;;3.28;;
56477;SDS011;42382;53.210;5.772;2023-04-26T23:47:14;4.13;;;2.75;;
56477;SDS011;42382;53.210;5.772;2023-04-26T23:49:40;8.63;;;3.35;;
56477;SDS011;42382;53.210;5.772;2023-04-26T23:52:05;7.38;;;3.08;;
56477;SDS011;42382;53.210;5.772;2023-04-26T23:54:31;6.68;;;3.17;;
56477;SDS011;42382;53.210;5.772;2023-04-26T23:56:57;4.95;;;2.90;;
56477;SDS011;42382;53.210;5.772;2023-04-26T23:59:22;4.75;;;2.63;;
